Truth — WYV5559 — position and weather

sailwx.info

Track history (hours):
 
Tides and Currents Weather Stations Pressure Air Temp Water Temp Dewpoint Dewpoint Depression Visibility Wind Speed Wind Dir Waves Ship Positions

Truth

Owner: TRUTH AQUATIES INC, SANTA BARBARA, CA. More information available from US FCC via Universal Licensing System and Coast Guard Vessel Documentation Center.

Last reported at 2014-Oct-01 20:21 UTC. Time now 2014-Oct-02 08:31 UTC.
Position N 34°24' W 119°42'.

Length 22 m.

Type: Diving. MMSI: 367384840.

Date/timePositionNaut miles runAvg speedWind from/ knotsBaromVisibWave heightAir tempDewpointWater temp
2014-Oct-01 20:21N 34°24' W 119°42'0 0.0
2014-Oct-01 19:27N 34°24' W 119°42'0 0.0
2014-Oct-01 02:09N 34°24' W 119°42'0 0.0
2014-Oct-01 00:28N 34°24' W 119°42'7 6.6
2014-Sep-30 23:24N 34°18' W 119°45'15 4.8
2014-Sep-30 20:20N 34°04' W 119°51'2 3.0
2014-Sep-30 19:33N 34°04' W 119°54'0 0.1
2014-Sep-30 18:27N 34°05' W 119°54'  
2014-Sep-27 12:22N 34°14' W 119°36'8 9.5
2014-Sep-27 11:33N 34°21' W 119°40'3 0.4
2014-Sep-27 03:16N 34°24' W 119°42'0 0.0
2014-Sep-27 02:28N 34°24' W 119°42'0 0.0
2014-Sep-26 21:10N 34°24' W 119°42'0 0.0
2014-Sep-26 20:04N 34°24' W 119°42'0 0.0
2014-Sep-26 19:16N 34°24' W 119°42'1 1.5
2014-Sep-26 18:33N 34°23' W 119°41'1 0.1
2014-Sep-26 05:13N 34°24' W 119°42'0 0.0
2014-Sep-26 02:31N 34°24' W 119°42'0 0.0
2014-Sep-25 22:14N 34°24' W 119°42'0 0.0
2014-Sep-23 19:14N 34°24' W 119°42'0 0.0
2014-Sep-22 02:14N 34°24' W 119°42'0 0.0
2014-Sep-22 01:29N 34°24' W 119°42'7 7.7
2014-Sep-22 00:33N 34°24' W 119°50'1010.0
2014-Sep-21 23:33N 34°25' W 120°02'  
Track history (hours):
 
Tides and Currents Weather Stations Pressure Air Temp Water Temp Dewpoint Dewpoint Depression Visibility Wind Speed Wind Dir Waves Ship Positions

Truth

Owner: TRUTH AQUATIES INC, SANTA BARBARA, CA. More information available from US FCC via Universal Licensing System and Coast Guard Vessel Documentation Center.

Last reported at 2014-Oct-01 20:21 UTC. Time now 2014-Oct-02 08:31 UTC.
Position N 34°24' W 119°42'.

Length 22 m.

Type: Diving. MMSI: 367384840.

Date/timePositionNaut miles runAvg speedWind from/ knotsBaromVisibWave heightAir tempDewpointWater temp
2014-Oct-01 20:21N 34°24' W 119°42'0 0.0
2014-Oct-01 19:27N 34°24' W 119°42'0 0.0
2014-Oct-01 02:09N 34°24' W 119°42'0 0.0
2014-Oct-01 00:28N 34°24' W 119°42'7 6.6
2014-Sep-30 23:24N 34°18' W 119°45'15 4.8
2014-Sep-30 20:20N 34°04' W 119°51'2 3.0
2014-Sep-30 19:33N 34°04' W 119°54'0 0.1
2014-Sep-30 18:27N 34°05' W 119°54'  
2014-Sep-27 12:22N 34°14' W 119°36'8 9.5
2014-Sep-27 11:33N 34°21' W 119°40'3 0.4
2014-Sep-27 03:16N 34°24' W 119°42'0 0.0
2014-Sep-27 02:28N 34°24' W 119°42'0 0.0
2014-Sep-26 21:10N 34°24' W 119°42'0 0.0
2014-Sep-26 20:04N 34°24' W 119°42'0 0.0
2014-Sep-26 19:16N 34°24' W 119°42'1 1.5
2014-Sep-26 18:33N 34°23' W 119°41'1 0.1
2014-Sep-26 05:13N 34°24' W 119°42'0 0.0
2014-Sep-26 02:31N 34°24' W 119°42'0 0.0
2014-Sep-25 22:14N 34°24' W 119°42'0 0.0
2014-Sep-23 19:14N 34°24' W 119°42'0 0.0
2014-Sep-22 02:14N 34°24' W 119°42'0 0.0
2014-Sep-22 01:29N 34°24' W 119°42'7 7.7
2014-Sep-22 00:33N 34°24' W 119°50'1010.0
2014-Sep-21 23:33N 34°25' W 120°02'  

Dump ship's entire track history